sensor_id;sensor_type;location;lat;lon;timestamp;temperature;humidity
336;DHT22;156;48.738;9.228;2023-12-20T00:00:23;5.90;1.00
336;DHT22;156;48.738;9.228;2023-12-20T00:02:50;5.90;1.00
336;DHT22;156;48.738;9.228;2023-12-20T00:05:17;5.90;1.00
336;DHT22;156;48.738;9.228;2023-12-20T00:07:44;5.90;1.00
336;DHT22;156;48.738;9.228;2023-12-20T00:10:10;5.90;1.00
336;DHT22;156;48.738;9.228;2023-12-20T00:12:39;5.90;1.00
336;DHT22;156;48.738;9.228;2023-12-20T00:15:07;5.90;1.00
336;DHT22;156;48.738;9.228;2023-12-20T00:17:35;6.00;1.00
336;DHT22;156;48.738;9.228;2023-12-20T00:20:02;6.00;1.00
336;DHT22;156;48.738;9.228;2023-12-20T00:22:29;6.00;1.00
336;DHT22;156;48.738;9.228;2023-12-20T00:24:57;6.00;1.00
336;DHT22;156;48.738;9.228;2023-12-20T00:27:24;6.00;1.00
336;DHT22;156;48.738;9.228;2023-12-20T00:29:50;6.00;1.00
336;DHT22;156;48.738;9.228;2023-12-20T00:32:17;6.00;1.00
336;DHT22;156;48.738;9.228;2023-12-20T00:34:46;6.10;1.00
336;DHT22;156;48.738;9.228;2023-12-20T00:37:13;6.00;1.00
336;DHT22;156;48.738;9.228;2023-12-20T00:39:40;6.00;1.00
336;DHT22;156;48.738;9.228;2023-12-20T00:42:07;6.00;1.00
336;DHT22;156;48.738;9.228;2023-12-20T00:44:34;6.00;1.00
336;DHT22;156;48.738;9.228;2023-12-20T00:47:01;6.00;1.00
336;DHT22;156;48.738;9.228;2023-12-20T00:49:27;6.00;1.00
336;DHT22;156;48.738;9.228;2023-12-20T00:51:56;5.90;89.30
336;DHT22;156;48.738;9.228;2023-12-20T00:54:23;5.90;99.90
336;DHT22;156;48.738;9.228;2023-12-20T00:56:49;5.90;99.90
336;DHT22;156;48.738;9.228;2023-12-20T00:59:16;5.90;99.90
336;DHT22;156;48.738;9.228;2023-12-20T01:01:44;5.90;1.00
336;DHT22;156;48.738;9.228;2023-12-20T01:04:11;5.90;1.00
336;DHT22;156;48.738;9.228;2023-12-20T01:06:38;5.80;1.00
336;DHT22;156;48.738;9.228;2023-12-20T01:09:06;5.90;1.00
336;DHT22;156;48.738;9.228;2023-12-20T01:11:33;5.90;1.00
336;DHT22;156;48.738;9.228;2023-12-20T01:14:00;5.80;1.00
336;DHT22;156;48.738;9.228;2023-12-20T01:16:26;5.80;1.00
336;DHT22;156;48.738;9.228;2023-12-20T01:18:53;5.80;1.00
336;DHT22;156;48.738;9.228;2023-12-20T01:21:20;5.80;1.00
336;DHT22;156;48.738;9.228;2023-12-20T01:23:47;5.70;1.00
336;DHT22;156;48.738;9.228;2023-12-20T01:26:16;5.70;1.00
336;DHT22;156;48.738;9.228;2023-12-20T01:28:43;5.70;1.00
336;DHT22;156;48.738;9.228;2023-12-20T01:31:10;5.60;1.00
336;DHT22;156;48.738;9.228;2023-12-20T01:33:37;5.60;4.70
336;DHT22;156;48.738;9.228;2023-12-20T01:36:04;5.60;24.70
336;DHT22;156;48.738;9.228;2023-12-20T01:38:31;5.50;54.00
336;DHT22;156;48.738;9.228;2023-12-20T01:40:58;5.50;83.60
336;DHT22;156;48.738;9.228;2023-12-20T01:43:27;5.50;87.40
336;DHT22;156;48.738;9.228;2023-12-20T01:45:56;5.50;97.60
336;DHT22;156;48.738;9.228;2023-12-20T01:48:24;5.50;99.90
336;DHT22;156;48.738;9.228;2023-12-20T01:50:51;5.40;99.90
336;DHT22;156;48.738;9.228;2023-12-20T01:53:20;5.50;99.90
336;DHT22;156;48.738;9.228;2023-12-20T01:55:50;5.50;99.90
336;DHT22;156;48.738;9.228;2023-12-20T01:58:19;5.50;99.90
336;DHT22;156;48.738;9.228;2023-12-20T02:00:48;5.50;99.90
336;DHT22;156;48.738;9.228;2023-12-20T02:03:16;5.60;99.90
336;DHT22;156;48.738;9.228;2023-12-20T02:05:44;5.60;99.90
336;DHT22;156;48.738;9.228;2023-12-20T02:08:11;5.50;99.90
336;DHT22;156;48.738;9.228;2023-12-20T02:10:38;5.50;99.90
336;DHT22;156;48.738;9.228;2023-12-20T02:13:06;5.50;99.90
336;DHT22;156;48.738;9.228;2023-12-20T02:15:33;5.50;99.90
336;DHT22;156;48.738;9.228;2023-12-20T02:18:04;5.50;99.90
336;DHT22;156;48.738;9.228;2023-12-20T02:20:31;5.60;99.90
336;DHT22;156;48.738;9.228;2023-12-20T02:22:59;5.60;99.90
336;DHT22;156;48.738;9.228;2023-12-20T02:25:26;5.50;99.90
336;DHT22;156;48.738;9.228;2023-12-20T02:27:53;5.50;99.90
336;DHT22;156;48.738;9.228;2023-12-20T02:30:21;5.50;99.90
336;DHT22;156;48.738;9.228;2023-12-20T02:32:48;5.50;99.90
336;DHT22;156;48.738;9.228;2023-12-20T02:35:16;5.50;99.90
336;DHT22;156;48.738;9.228;2023-12-20T02:37:43;5.50;99.90
336;DHT22;156;48.738;9.228;2023-12-20T02:40:11;5.50;99.90
336;DHT22;156;48.738;9.228;2023-12-20T02:42:38;5.50;99.90
336;DHT22;156;48.738;9.228;2023-12-20T02:45:06;5.40;99.90
336;DHT22;156;48.738;9.228;2023-12-20T02:47:33;5.50;99.90
336;DHT22;156;48.738;9.228;2023-12-20T02:50:00;5.50;99.90
336;DHT22;156;48.738;9.228;2023-12-20T02:52:28;5.50;99.90
336;DHT22;156;48.738;9.228;2023-12-20T02:54:55;5.50;99.90
336;DHT22;156;48.738;9.228;2023-12-20T02:57:23;5.50;99.90
336;DHT22;156;48.738;9.228;2023-12-20T02:59:50;5.50;99.90
336;DHT22;156;48.738;9.228;2023-12-20T03:02:17;5.40;99.90
336;DHT22;156;48.738;9.228;2023-12-20T03:04:44;5.40;99.90
336;DHT22;156;48.738;9.228;2023-12-20T03:07:11;5.40;99.90
336;DHT22;156;48.738;9.228;2023-12-20T03:09:38;5.40;99.90
336;DHT22;156;48.738;9.228;2023-12-20T03:12:05;5.40;99.90
336;DHT22;156;48.738;9.228;2023-12-20T03:14:33;5.40;99.90
336;DHT22;156;48.738;9.228;2023-12-20T03:17:00;5.40;99.90
336;DHT22;156;48.738;9.228;2023-12-20T03:19:27;5.30;99.90
336;DHT22;156;48.738;9.228;2023-12-20T03:21:54;5.30;99.90
336;DHT22;156;48.738;9.228;2023-12-20T03:24:21;5.30;99.90
336;DHT22;156;48.738;9.228;2023-12-20T03:26:48;5.30;99.90
336;DHT22;156;48.738;9.228;2023-12-20T03:29:15;5.30;99.90
336;DHT22;156;48.738;9.228;2023-12-20T03:31:43;5.30;99.90
336;DHT22;156;48.738;9.228;2023-12-20T03:34:11;5.30;99.90
336;DHT22;156;48.738;9.228;2023-12-20T03:36:38;5.30;99.90
336;DHT22;156;48.738;9.228;2023-12-20T03:39:05;5.30;99.90
336;DHT22;156;48.738;9.228;2023-12-20T03:41:32;5.30;99.90
336;DHT22;156;48.738;9.228;2023-12-20T03:43:58;5.30;99.90
336;DHT22;156;48.738;9.228;2023-12-20T03:46:25;5.30;99.90
336;DHT22;156;48.738;9.228;2023-12-20T03:48:54;5.30;99.90
336;DHT22;156;48.738;9.228;2023-12-20T03:51:21;5.30;99.90
336;DHT22;156;48.738;9.228;2023-12-20T03:53:48;5.30;99.90
336;DHT22;156;48.738;9.228;2023-12-20T03:56:14;5.20;99.90
336;DHT22;156;48.738;9.228;2023-12-20T03:58:41;5.20;99.90
336;DHT22;156;48.738;9.228;2023-12-20T04:01:09;5.20;99.90
336;DHT22;156;48.738;9.228;2023-12-20T04:03:37;5.20;99.90
336;DHT22;156;48.738;9.228;2023-12-20T04:06:05;5.20;99.90
336;DHT22;156;48.738;9.228;2023-12-20T04:08:32;5.10;99.90
336;DHT22;156;48.738;9.228;2023-12-20T04:10:59;5.10;99.90
336;DHT22;156;48.738;9.228;2023-12-20T04:13:26;5.10;99.90
336;DHT22;156;48.738;9.228;2023-12-20T04:15:53;5.10;99.90
336;DHT22;156;48.738;9.228;2023-12-20T04:18:20;5.10;99.90
336;DHT22;156;48.738;9.228;2023-12-20T04:20:47;5.00;99.90
336;DHT22;156;48.738;9.228;2023-12-20T04:23:16;5.10;99.90
336;DHT22;156;48.738;9.228;2023-12-20T04:25:43;5.00;99.90
336;DHT22;156;48.738;9.228;2023-12-20T04:28:10;5.00;99.90
336;DHT22;156;48.738;9.228;2023-12-20T04:30:36;4.90;99.90
336;DHT22;156;48.738;9.228;2023-12-20T04:33:05;4.90;99.90
336;DHT22;156;48.738;9.228;2023-12-20T04:35:32;4.90;99.90
336;DHT22;156;48.738;9.228;2023-12-20T04:37:59;4.90;99.90
336;DHT22;156;48.738;9.228;2023-12-20T04:40:27;4.90;99.90
336;DHT22;156;48.738;9.228;2023-12-20T04:42:54;4.90;99.90
336;DHT22;156;48.738;9.228;2023-12-20T04:45:21;4.90;99.90
336;DHT22;156;48.738;9.228;2023-12-20T04:47:49;4.80;99.90
336;DHT22;156;48.738;9.228;2023-12-20T04:50:16;4.80;99.90
336;DHT22;156;48.738;9.228;2023-12-20T04:52:43;4.90;99.90
336;DHT22;156;48.738;9.228;2023-12-20T04:55:10;4.80;99.90
336;DHT22;156;48.738;9.228;2023-12-20T04:57:38;4.80;99.90
336;DHT22;156;48.738;9.228;2023-12-20T05:00:06;4.80;99.90
336;DHT22;156;48.738;9.228;2023-12-20T05:02:34;4.80;99.90
336;DHT22;156;48.738;9.228;2023-12-20T05:05:01;4.80;99.90
336;DHT22;156;48.738;9.228;2023-12-20T05:07:28;4.80;99.90
336;DHT22;156;48.738;9.228;2023-12-20T05:09:55;4.80;99.90
336;DHT22;156;48.738;9.228;2023-12-20T05:12:22;4.80;99.90
336;DHT22;156;48.738;9.228;2023-12-20T05:14:51;4.80;99.90
336;DHT22;156;48.738;9.228;2023-12-20T05:17:18;4.80;99.90
336;DHT22;156;48.738;9.228;2023-12-20T05:19:46;4.70;99.90
336;DHT22;156;48.738;9.228;2023-12-20T05:22:13;4.80;99.90
336;DHT22;156;48.738;9.228;2023-12-20T05:24:40;4.80;99.90
336;DHT22;156;48.738;9.228;2023-12-20T05:27:09;4.70;99.90
336;DHT22;156;48.738;9.228;2023-12-20T05:29:36;4.80;99.90
336;DHT22;156;48.738;9.228;2023-12-20T05:32:05;4.70;99.90
336;DHT22;156;48.738;9.228;2023-12-20T05:34:32;4.70;99.90
336;DHT22;156;48.738;9.228;2023-12-20T05:36:59;4.70;99.90
336;DHT22;156;48.738;9.228;2023-12-20T05:39:27;4.70;99.90
336;DHT22;156;48.738;9.228;2023-12-20T05:41:54;4.70;99.90
336;DHT22;156;48.738;9.228;2023-12-20T05:44:21;4.70;99.90
336;DHT22;156;48.738;9.228;2023-12-20T05:46:47;4.70;99.90
336;DHT22;156;48.738;9.228;2023-12-20T05:49:16;4.70;99.90
336;DHT22;156;48.738;9.228;2023-12-20T05:51:42;4.70;99.90
336;DHT22;156;48.738;9.228;2023-12-20T05:54:10;4.70;99.90
336;DHT22;156;48.738;9.228;2023-12-20T05:56:37;4.70;99.90
336;DHT22;156;48.738;9.228;2023-12-20T05:59:03;4.70;99.90
336;DHT22;156;48.738;9.228;2023-12-20T06:01:30;4.70;99.90
336;DHT22;156;48.738;9.228;2023-12-20T06:03:57;4.70;99.90
336;DHT22;156;48.738;9.228;2023-12-20T06:06:25;4.70;99.90
336;DHT22;156;48.738;9.228;2023-12-20T06:08:52;4.60;99.90
336;DHT22;156;48.738;9.228;2023-12-20T06:11:19;4.60;99.90
336;DHT22;156;48.738;9.228;2023-12-20T06:13:46;4.60;99.90
336;DHT22;156;48.738;9.228;2023-12-20T06:16:14;4.60;99.90
336;DHT22;156;48.738;9.228;2023-12-20T06:18:41;4.60;99.90
336;DHT22;156;48.738;9.228;2023-12-20T06:21:08;4.60;99.90
336;DHT22;156;48.738;9.228;2023-12-20T06:23:39;4.70;99.90
336;DHT22;156;48.738;9.228;2023-12-20T06:26:06;4.70;99.90
336;DHT22;156;48.738;9.228;2023-12-20T06:28:33;4.60;99.90
336;DHT22;156;48.738;9.228;2023-12-20T06:31:00;4.70;99.90
336;DHT22;156;48.738;9.228;2023-12-20T06:33:27;4.80;99.90
336;DHT22;156;48.738;9.228;2023-12-20T06:35:54;4.80;99.90
336;DHT22;156;48.738;9.228;2023-12-20T06:38:21;4.70;99.90
336;DHT22;156;48.738;9.228;2023-12-20T06:40:50;4.70;99.90
336;DHT22;156;48.738;9.228;2023-12-20T06:43:16;4.70;99.90
336;DHT22;156;48.738;9.228;2023-12-20T06:45:43;4.70;99.90
336;DHT22;156;48.738;9.228;2023-12-20T06:48:10;4.70;99.90
336;DHT22;156;48.738;9.228;2023-12-20T06:50:38;4.70;99.90
336;DHT22;156;48.738;9.228;2023-12-20T06:53:06;4.60;99.90
336;DHT22;156;48.738;9.228;2023-12-20T06:55:32;4.60;99.90
336;DHT22;156;48.738;9.228;2023-12-20T06:58:01;4.60;99.90
336;DHT22;156;48.738;9.228;2023-12-20T07:00:28;4.60;99.90
336;DHT22;156;48.738;9.228;2023-12-20T07:02:55;4.60;99.90
336;DHT22;156;48.738;9.228;2023-12-20T07:05:22;4.60;99.90
336;DHT22;156;48.738;9.228;2023-12-20T07:07:49;4.60;99.90
336;DHT22;156;48.738;9.228;2023-12-20T07:10:16;4.70;99.90
336;DHT22;156;48.738;9.228;2023-12-20T07:12:42;4.80;99.90
336;DHT22;156;48.738;9.228;2023-12-20T07:15:11;4.70;99.90
336;DHT22;156;48.738;9.228;2023-12-20T07:17:38;4.70;99.90
336;DHT22;156;48.738;9.228;2023-12-20T07:20:06;4.70;99.90
336;DHT22;156;48.738;9.228;2023-12-20T07:22:36;4.80;99.90
336;DHT22;156;48.738;9.228;2023-12-20T07:25:03;4.80;99.90
336;DHT22;156;48.738;9.228;2023-12-20T07:27:30;4.90;99.90
336;DHT22;156;48.738;9.228;2023-12-20T07:29:57;4.90;99.90
336;DHT22;156;48.738;9.228;2023-12-20T07:32:25;5.00;99.90
336;DHT22;156;48.738;9.228;2023-12-20T07:34:52;5.10;99.90
336;DHT22;156;48.738;9.228;2023-12-20T07:37:20;5.10;99.90
336;DHT22;156;48.738;9.228;2023-12-20T07:39:47;5.00;99.90
336;DHT22;156;48.738;9.228;2023-12-20T07:42:14;5.00;99.90
336;DHT22;156;48.738;9.228;2023-12-20T07:44:41;5.00;99.90
336;DHT22;156;48.738;9.228;2023-12-20T07:47:08;4.90;99.90
336;DHT22;156;48.738;9.228;2023-12-20T07:49:36;4.80;99.90
336;DHT22;156;48.738;9.228;2023-12-20T07:52:03;4.80;99.90
336;DHT22;156;48.738;9.228;2023-12-20T07:54:30;4.70;99.90
336;DHT22;156;48.738;9.228;2023-12-20T07:56:57;4.80;99.90
336;DHT22;156;48.738;9.228;2023-12-20T07:59:24;4.70;99.90
336;DHT22;156;48.738;9.228;2023-12-20T08:01:51;4.70;57.30
336;DHT22;156;48.738;9.228;2023-12-20T08:04:18;4.70;49.90
336;DHT22;156;48.738;9.228;2023-12-20T08:06:46;4.70;71.70
336;DHT22;156;48.738;9.228;2023-12-20T08:09:13;4.70;51.70
336;DHT22;156;48.738;9.228;2023-12-20T08:11:40;4.70;44.30
336;DHT22;156;48.738;9.228;2023-12-20T08:14:11;4.70;70.10
336;DHT22;156;48.738;9.228;2023-12-20T08:16:38;4.70;85.90
336;DHT22;156;48.738;9.228;2023-12-20T08:19:04;4.70;99.90
336;DHT22;156;48.738;9.228;2023-12-20T08:21:31;4.70;99.90
336;DHT22;156;48.738;9.228;2023-12-20T08:24:00;4.70;99.80
336;DHT22;156;48.738;9.228;2023-12-20T08:26:27;4.70;95.40
336;DHT22;156;48.738;9.228;2023-12-20T08:28:54;4.70;88.80
336;DHT22;156;48.738;9.228;2023-12-20T08:31:21;4.70;50.10
336;DHT22;156;48.738;9.228;2023-12-20T08:33:50;4.60;46.70
336;DHT22;156;48.738;9.228;2023-12-20T08:36:19;4.70;38.40
336;DHT22;156;48.738;9.228;2023-12-20T08:38:47;4.60;18.00
336;DHT22;156;48.738;9.228;2023-12-20T08:41:16;4.60;17.10
336;DHT22;156;48.738;9.228;2023-12-20T08:43:43;4.60;1.00
336;DHT22;156;48.738;9.228;2023-12-20T08:46:10;4.60;1.00
336;DHT22;156;48.738;9.228;2023-12-20T08:48:37;4.70;1.00
336;DHT22;156;48.738;9.228;2023-12-20T08:51:04;4.70;1.00
336;DHT22;156;48.738;9.228;2023-12-20T08:53:32;4.60;1.00
336;DHT22;156;48.738;9.228;2023-12-20T08:56:00;4.60;1.00
336;DHT22;156;48.738;9.228;2023-12-20T08:58:29;4.60;1.00
336;DHT22;156;48.738;9.228;2023-12-20T09:00:55;4.50;1.00
336;DHT22;156;48.738;9.228;2023-12-20T09:03:23;4.50;1.00
336;DHT22;156;48.738;9.228;2023-12-20T09:05:50;4.40;1.00
336;DHT22;156;48.738;9.228;2023-12-20T09:08:17;4.40;1.00
336;DHT22;156;48.738;9.228;2023-12-20T09:10:44;4.40;1.00
336;DHT22;156;48.738;9.228;2023-12-20T09:13:11;4.40;1.00
336;DHT22;156;48.738;9.228;2023-12-20T09:15:39;4.40;1.00
336;DHT22;156;48.738;9.228;2023-12-20T09:18:06;4.30;1.00
336;DHT22;156;48.738;9.228;2023-12-20T09:20:33;4.30;1.00
336;DHT22;156;48.738;9.228;2023-12-20T09:23:00;4.20;1.00
336;DHT22;156;48.738;9.228;2023-12-20T09:25:27;4.20;1.00
336;DHT22;156;48.738;9.228;2023-12-20T09:27:55;4.20;1.00
336;DHT22;156;48.738;9.228;2023-12-20T09:30:22;4.20;1.00
336;DHT22;156;48.738;9.228;2023-12-20T09:32:51;4.30;1.00
336;DHT22;156;48.738;9.228;2023-12-20T09:35:18;4.30;1.00
336;DHT22;156;48.738;9.228;2023-12-20T09:37:44;4.40;1.00
336;DHT22;156;48.738;9.228;2023-12-20T09:40:13;4.40;1.00
336;DHT22;156;48.738;9.228;2023-12-20T09:42:48;4.50;1.00
336;DHT22;156;48.738;9.228;2023-12-20T09:45:20;4.50;1.00
336;DHT22;156;48.738;9.228;2023-12-20T09:47:48;4.70;1.00
336;DHT22;156;48.738;9.228;2023-12-20T09:50:18;4.70;1.00
336;DHT22;156;48.738;9.228;2023-12-20T09:52:46;4.80;1.00
336;DHT22;156;48.738;9.228;2023-12-20T09:55:17;4.80;1.00
336;DHT22;156;48.738;9.228;2023-12-20T09:57:44;4.90;1.00
336;DHT22;156;48.738;9.228;2023-12-20T10:00:12;4.80;6.10
336;DHT22;156;48.738;9.228;2023-12-20T10:02:44;4.80;99.90
336;DHT22;156;48.738;9.228;2023-12-20T10:05:17;4.90;1.00
336;DHT22;156;48.738;9.228;2023-12-20T10:07:45;4.90;1.00
336;DHT22;156;48.738;9.228;2023-12-20T10:10:13;5.00;1.00
336;DHT22;156;48.738;9.228;2023-12-20T10:12:40;5.00;1.00
336;DHT22;156;48.738;9.228;2023-12-20T10:15:08;5.10;1.00
336;DHT22;156;48.738;9.228;2023-12-20T10:17:36;5.20;1.00
336;DHT22;156;48.738;9.228;2023-12-20T10:20:04;5.20;99.90
336;DHT22;156;48.738;9.228;2023-12-20T10:22:37;5.20;1.00
336;DHT22;156;48.738;9.228;2023-12-20T10:25:05;5.20;1.00
336;DHT22;156;48.738;9.228;2023-12-20T10:27:32;5.40;1.00
336;DHT22;156;48.738;9.228;2023-12-20T10:29:59;5.30;1.00
336;DHT22;156;48.738;9.228;2023-12-20T10:32:27;5.30;1.00
336;DHT22;156;48.738;9.228;2023-12-20T10:34:54;5.30;1.00
336;DHT22;156;48.738;9.228;2023-12-20T10:37:21;5.40;1.00
336;DHT22;156;48.738;9.228;2023-12-20T10:39:51;5.30;99.90
336;DHT22;156;48.738;9.228;2023-12-20T10:42:22;5.20;99.90
336;DHT22;156;48.738;9.228;2023-12-20T10:44:49;5.20;99.90
336;DHT22;156;48.738;9.228;2023-12-20T10:47:17;5.20;99.90
336;DHT22;156;48.738;9.228;2023-12-20T10:49:45;5.30;99.90
336;DHT22;156;48.738;9.228;2023-12-20T10:52:13;5.20;1.00
336;DHT22;156;48.738;9.228;2023-12-20T10:54:40;5.10;99.90
336;DHT22;156;48.738;9.228;2023-12-20T10:57:09;5.10;1.00
336;DHT22;156;48.738;9.228;2023-12-20T10:59:37;5.20;1.00
336;DHT22;156;48.738;9.228;2023-12-20T11:02:05;5.10;99.90
336;DHT22;156;48.738;9.228;2023-12-20T11:04:38;5.20;99.90
336;DHT22;156;48.738;9.228;2023-12-20T11:07:15;5.20;99.90
336;DHT22;156;48.738;9.228;2023-12-20T11:09:49;5.10;99.90
336;DHT22;156;48.738;9.228;2023-12-20T11:12:27;5.00;99.90
336;DHT22;156;48.738;9.228;2023-12-20T11:14:56;5.00;99.90
336;DHT22;156;48.738;9.228;2023-12-20T11:17:27;5.00;99.90
336;DHT22;156;48.738;9.228;2023-12-20T11:20:09;5.00;99.90
336;DHT22;156;48.738;9.228;2023-12-20T11:22:51;4.90;99.90
336;DHT22;156;48.738;9.228;2023-12-20T11:25:18;5.00;99.90
336;DHT22;156;48.738;9.228;2023-12-20T11:28:07;5.00;99.90
336;DHT22;156;48.738;9.228;2023-12-20T11:30:41;5.00;99.90
336;DHT22;156;48.738;9.228;2023-12-20T11:33:08;5.00;99.90
336;DHT22;156;48.738;9.228;2023-12-20T11:35:35;5.10;99.90
336;DHT22;156;48.738;9.228;2023-12-20T11:38:02;5.10;99.90
336;DHT22;156;48.738;9.228;2023-12-20T11:40:34;5.20;99.90
336;DHT22;156;48.738;9.228;2023-12-20T11:43:03;5.20;99.90
336;DHT22;156;48.738;9.228;2023-12-20T11:45:31;5.20;99.90
336;DHT22;156;48.738;9.228;2023-12-20T11:47:57;5.30;99.90
336;DHT22;156;48.738;9.228;2023-12-20T11:50:24;5.30;99.90
336;DHT22;156;48.738;9.228;2023-12-20T11:52:52;5.20;34.30
336;DHT22;156;48.738;9.228;2023-12-20T11:55:20;5.10;1.00
336;DHT22;156;48.738;9.228;2023-12-20T11:57:46;5.00;1.00
336;DHT22;156;48.738;9.228;2023-12-20T12:00:16;5.00;1.00
336;DHT22;156;48.738;9.228;2023-12-20T12:02:43;5.00;1.00
336;DHT22;156;48.738;9.228;2023-12-20T12:05:09;5.00;1.00
336;DHT22;156;48.738;9.228;2023-12-20T12:07:36;5.00;1.00
336;DHT22;156;48.738;9.228;2023-12-20T12:10:04;5.00;1.00
336;DHT22;156;48.738;9.228;2023-12-20T12:12:31;5.00;1.00
336;DHT22;156;48.738;9.228;2023-12-20T12:14:58;5.10;1.00
336;DHT22;156;48.738;9.228;2023-12-20T12:17:27;5.00;1.00
336;DHT22;156;48.738;9.228;2023-12-20T12:20:02;5.10;1.00
336;DHT22;156;48.738;9.228;2023-12-20T12:22:30;5.00;1.00
336;DHT22;156;48.738;9.228;2023-12-20T12:24:59;5.00;1.00
336;DHT22;156;48.738;9.228;2023-12-20T12:27:27;4.90;1.00
336;DHT22;156;48.738;9.228;2023-12-20T12:30:01;4.90;1.00
336;DHT22;156;48.738;9.228;2023-12-20T12:32:29;5.10;1.00
336;DHT22;156;48.738;9.228;2023-12-20T12:34:56;5.30;1.00
336;DHT22;156;48.738;9.228;2023-12-20T12:37:23;5.40;1.00
336;DHT22;156;48.738;9.228;2023-12-20T12:39:52;5.50;1.00
336;DHT22;156;48.738;9.228;2023-12-20T12:42:19;5.50;1.00
336;DHT22;156;48.738;9.228;2023-12-20T12:44:47;5.50;1.00
336;DHT22;156;48.738;9.228;2023-12-20T12:47:14;5.50;1.00
336;DHT22;156;48.738;9.228;2023-12-20T12:49:42;5.40;1.00
336;DHT22;156;48.738;9.228;2023-12-20T12:52:09;5.60;1.00
336;DHT22;156;48.738;9.228;2023-12-20T12:54:36;5.60;1.00
336;DHT22;156;48.738;9.228;2023-12-20T12:57:03;5.70;1.00
336;DHT22;156;48.738;9.228;2023-12-20T12:59:30;5.70;1.00
336;DHT22;156;48.738;9.228;2023-12-20T13:01:57;5.70;1.00
336;DHT22;156;48.738;9.228;2023-12-20T13:04:24;5.70;1.00
336;DHT22;156;48.738;9.228;2023-12-20T13:06:52;5.80;1.00
336;DHT22;156;48.738;9.228;2023-12-20T13:09:19;5.60;1.00
336;DHT22;156;48.738;9.228;2023-12-20T13:11:46;5.60;1.00
336;DHT22;156;48.738;9.228;2023-12-20T13:14:13;5.70;1.00
336;DHT22;156;48.738;9.228;2023-12-20T13:16:41;5.80;1.00
336;DHT22;156;48.738;9.228;2023-12-20T13:19:08;5.70;1.00
336;DHT22;156;48.738;9.228;2023-12-20T13:21:35;5.60;1.00
336;DHT22;156;48.738;9.228;2023-12-20T13:24:07;5.50;1.00
336;DHT22;156;48.738;9.228;2023-12-20T13:26:33;5.50;1.00
336;DHT22;156;48.738;9.228;2023-12-20T13:29:00;5.50;1.00
336;DHT22;156;48.738;9.228;2023-12-20T13:31:27;5.40;1.00
336;DHT22;156;48.738;9.228;2023-12-20T13:33:54;5.40;1.00
336;DHT22;156;48.738;9.228;2023-12-20T13:36:21;5.50;1.00
336;DHT22;156;48.738;9.228;2023-12-20T13:38:48;5.90;1.00
336;DHT22;156;48.738;9.228;2023-12-20T13:41:17;6.30;1.00
336;DHT22;156;48.738;9.228;2023-12-20T13:43:43;6.30;99.90
336;DHT22;156;48.738;9.228;2023-12-20T13:46:11;6.10;99.90
336;DHT22;156;48.738;9.228;2023-12-20T13:48:39;6.10;99.90
336;DHT22;156;48.738;9.228;2023-12-20T13:51:07;6.10;99.90
336;DHT22;156;48.738;9.228;2023-12-20T13:53:34;5.90;99.90
336;DHT22;156;48.738;9.228;2023-12-20T13:56:01;5.80;99.90
336;DHT22;156;48.738;9.228;2023-12-20T13:58:29;5.60;99.90
336;DHT22;156;48.738;9.228;2023-12-20T14:00:56;5.50;99.90
336;DHT22;156;48.738;9.228;2023-12-20T14:03:23;5.50;99.90
336;DHT22;156;48.738;9.228;2023-12-20T14:05:50;5.50;1.00
336;DHT22;156;48.738;9.228;2023-12-20T14:08:17;5.40;1.00
336;DHT22;156;48.738;9.228;2023-12-20T14:10:44;5.40;1.00
336;DHT22;156;48.738;9.228;2023-12-20T14:13:11;5.30;1.00
336;DHT22;156;48.738;9.228;2023-12-20T14:15:39;5.30;1.00
336;DHT22;156;48.738;9.228;2023-12-20T14:18:06;5.30;1.00
336;DHT22;156;48.738;9.228;2023-12-20T14:20:34;5.40;1.00
336;DHT22;156;48.738;9.228;2023-12-20T14:23:01;5.40;1.00
336;DHT22;156;48.738;9.228;2023-12-20T14:25:28;5.40;1.00
336;DHT22;156;48.738;9.228;2023-12-20T14:27:55;5.40;1.00
336;DHT22;156;48.738;9.228;2023-12-20T14:30:22;5.30;1.00
336;DHT22;156;48.738;9.228;2023-12-20T14:32:51;5.30;1.00
336;DHT22;156;48.738;9.228;2023-12-20T14:35:18;5.30;1.00
336;DHT22;156;48.738;9.228;2023-12-20T14:37:45;5.20;1.00
336;DHT22;156;48.738;9.228;2023-12-20T14:40:12;5.20;1.00
336;DHT22;156;48.738;9.228;2023-12-20T14:42:42;5.10;1.00
336;DHT22;156;48.738;9.228;2023-12-20T14:45:09;5.10;1.00
336;DHT22;156;48.738;9.228;2023-12-20T14:47:36;5.00;1.00
336;DHT22;156;48.738;9.228;2023-12-20T14:50:06;5.00;1.00
336;DHT22;156;48.738;9.228;2023-12-20T14:52:33;5.10;1.00
336;DHT22;156;48.738;9.228;2023-12-20T14:55:00;5.10;1.00
336;DHT22;156;48.738;9.228;2023-12-20T14:57:28;5.10;1.00
336;DHT22;156;48.738;9.228;2023-12-20T14:59:55;5.00;4.70
336;DHT22;156;48.738;9.228;2023-12-20T15:02:22;4.90;99.90
336;DHT22;156;48.738;9.228;2023-12-20T15:04:49;4.90;99.90
336;DHT22;156;48.738;9.228;2023-12-20T15:07:18;4.80;99.90
336;DHT22;156;48.738;9.228;2023-12-20T15:09:45;4.70;99.90
336;DHT22;156;48.738;9.228;2023-12-20T15:12:13;4.80;99.90
336;DHT22;156;48.738;9.228;2023-12-20T15:14:40;4.70;99.90
336;DHT22;156;48.738;9.228;2023-12-20T15:17:07;4.70;1.00
336;DHT22;156;48.738;9.228;2023-12-20T15:19:34;4.70;1.00
336;DHT22;156;48.738;9.228;2023-12-20T15:22:01;4.70;1.00
336;DHT22;156;48.738;9.228;2023-12-20T15:24:30;4.60;1.00
336;DHT22;156;48.738;9.228;2023-12-20T15:27:04;4.70;1.00
336;DHT22;156;48.738;9.228;2023-12-20T15:29:31;4.70;1.00
336;DHT22;156;48.738;9.228;2023-12-20T15:31:58;4.60;1.00
336;DHT22;156;48.738;9.228;2023-12-20T15:34:25;4.50;1.00
336;DHT22;156;48.738;9.228;2023-12-20T15:36:51;4.60;1.00
336;DHT22;156;48.738;9.228;2023-12-20T15:39:19;4.60;1.00
336;DHT22;156;48.738;9.228;2023-12-20T15:41:47;4.50;1.00
336;DHT22;156;48.738;9.228;2023-12-20T15:44:14;4.50;1.00
336;DHT22;156;48.738;9.228;2023-12-20T15:46:41;4.50;1.00
336;DHT22;156;48.738;9.228;2023-12-20T15:49:08;4.50;71.20
336;DHT22;156;48.738;9.228;2023-12-20T15:51:36;4.60;96.80
336;DHT22;156;48.738;9.228;2023-12-20T15:54:04;4.50;99.90
336;DHT22;156;48.738;9.228;2023-12-20T15:56:32;4.50;99.90
336;DHT22;156;48.738;9.228;2023-12-20T15:59:00;4.40;99.90
336;DHT22;156;48.738;9.228;2023-12-20T16:01:29;4.40;99.90
336;DHT22;156;48.738;9.228;2023-12-20T16:03:56;4.40;99.90
336;DHT22;156;48.738;9.228;2023-12-20T16:06:23;4.30;99.90
336;DHT22;156;48.738;9.228;2023-12-20T16:08:50;4.30;1.00
336;DHT22;156;48.738;9.228;2023-12-20T16:11:17;4.20;1.00
336;DHT22;156;48.738;9.228;2023-12-20T16:13:44;4.20;1.00
336;DHT22;156;48.738;9.228;2023-12-20T16:16:12;4.20;1.00
336;DHT22;156;48.738;9.228;2023-12-20T16:18:42;4.20;1.00
336;DHT22;156;48.738;9.228;2023-12-20T16:21:12;4.20;1.00
336;DHT22;156;48.738;9.228;2023-12-20T16:23:39;4.30;1.00
336;DHT22;156;48.738;9.228;2023-12-20T16:26:06;4.30;1.00
336;DHT22;156;48.738;9.228;2023-12-20T16:28:36;4.40;1.00
336;DHT22;156;48.738;9.228;2023-12-20T16:31:03;4.30;1.00
336;DHT22;156;48.738;9.228;2023-12-20T16:33:31;4.30;1.00
336;DHT22;156;48.738;9.228;2023-12-20T16:35:58;4.20;1.00
336;DHT22;156;48.738;9.228;2023-12-20T16:38:25;4.20;1.00
336;DHT22;156;48.738;9.228;2023-12-20T16:40:51;4.10;1.00
336;DHT22;156;48.738;9.228;2023-12-20T16:43:18;4.20;1.00
336;DHT22;156;48.738;9.228;2023-12-20T16:45:45;4.20;1.00
336;DHT22;156;48.738;9.228;2023-12-20T16:48:12;4.20;1.00
336;DHT22;156;48.738;9.228;2023-12-20T16:50:41;4.30;1.00
336;DHT22;156;48.738;9.228;2023-12-20T16:53:08;4.30;1.00
336;DHT22;156;48.738;9.228;2023-12-20T16:55:35;4.30;1.00
336;DHT22;156;48.738;9.228;2023-12-20T16:58:02;4.20;1.00
336;DHT22;156;48.738;9.228;2023-12-20T17:00:29;4.20;1.00